createdAt,value
2023-02-06T00:01:23.971Z,6.73
2023-02-06T00:03:25.565Z,6.40
2023-02-06T00:05:27.379Z,6.67
2023-02-06T00:07:29.610Z,7.00
2023-02-06T00:09:31.269Z,7.20
2023-02-06T00:11:33.345Z,6.70
2023-02-06T00:13:35.847Z,8.07
2023-02-06T00:15:38.010Z,7.47
2023-02-06T00:17:39.787Z,7.80
2023-02-06T00:19:41.610Z,8.03
2023-02-06T00:21:43.944Z,8.00
2023-02-06T00:23:45.795Z,8.47
2023-02-06T00:25:47.245Z,8.00
2023-02-06T00:27:48.897Z,7.93
2023-02-06T00:29:50.643Z,8.00
2023-02-06T00:31:52.410Z,7.30
2023-02-06T00:33:54.037Z,7.97
2023-02-06T00:35:55.492Z,7.63
2023-02-06T00:37:57.122Z,7.63
2023-02-06T00:40:01.183Z,7.97
2023-02-06T00:42:04.100Z,7.37
2023-02-06T00:44:05.666Z,7.90
2023-02-06T00:46:07.195Z,8.60
2023-02-06T00:48:16.343Z,8.77
2023-02-06T00:50:18.342Z,9.73
2023-02-06T00:52:19.909Z,10.70
2023-02-06T00:54:21.433Z,10.10
2023-02-06T00:56:25.690Z,11.80
2023-02-06T00:58:27.416Z,10.93
2023-02-06T01:00:31.729Z,10.63
2023-02-06T01:02:33.471Z,11.67
2023-02-06T01:04:35.250Z,11.07
2023-02-06T01:06:36.988Z,11.37
2023-02-06T01:08:40.640Z,11.43
2023-02-06T01:10:43.704Z,11.07
2023-02-06T01:12:45.396Z,11.13
2023-02-06T01:14:48.404Z,10.43
2023-02-06T01:16:50.148Z,10.80
2023-02-06T01:18:51.759Z,9.80
2023-02-06T01:20:53.305Z,10.53
2023-02-06T01:22:54.909Z,9.90
2023-02-06T01:24:59.443Z,10.60
2023-02-06T01:27:01.174Z,10.57
2023-02-06T01:29:03.843Z,10.53
2023-02-06T01:31:39.020Z,10.57
2023-02-06T01:33:41.149Z,10.70
2023-02-06T01:35:43.811Z,10.27
2023-02-06T01:37:48.196Z,10.30
2023-02-06T01:39:49.704Z,11.03
2023-02-06T01:41:51.346Z,12.33
2023-02-06T01:44:15.668Z,13.00
2023-02-06T01:46:17.366Z,12.07
2023-02-06T01:48:30.660Z,11.83
2023-02-06T01:50:34.156Z,10.87
2023-02-06T01:52:35.842Z,10.67
2023-02-06T01:54:37.637Z,10.27
2023-02-06T01:56:48.114Z,10.57
2023-02-06T01:58:53.660Z,10.60
2023-02-06T02:00:56.260Z,11.00
2023-02-06T02:02:57.865Z,11.60
2023-02-06T02:05:01.541Z,10.23
2023-02-06T02:07:22.893Z,10.53
2023-02-06T02:09:24.911Z,9.40
2023-02-06T02:11:38.128Z,8.33
2023-02-06T02:13:40.088Z,8.67
2023-02-06T02:15:52.824Z,8.23
2023-02-06T02:18:18.934Z,7.80
2023-02-06T02:20:39.339Z,8.30
2023-02-06T02:22:50.092Z,7.83
2023-02-06T02:25:29.369Z,7.43
2023-02-06T02:27:52.325Z,7.90
2023-02-06T02:30:15.905Z,8.20
2023-02-06T02:32:34.662Z,7.30
2023-02-06T02:35:01.799Z,7.97
2023-02-06T02:37:47.617Z,7.20
2023-02-06T02:40:12.199Z,7.10
2023-02-06T02:42:26.431Z,7.17
2023-02-06T02:44:40.117Z,6.33
2023-02-06T02:46:49.508Z,6.60
2023-02-06T02:48:55.147Z,6.70
2023-02-06T02:50:59.770Z,6.30
2023-02-06T02:53:03.584Z,6.87
2023-02-06T02:55:16.792Z,6.43
2023-02-06T02:57:27.861Z,7.30
2023-02-06T02:59:36.459Z,6.70
2023-02-06T03:01:46.875Z,6.33
2023-02-06T03:03:53.103Z,6.50
2023-02-06T03:06:20.672Z,6.50
2023-02-06T03:08:51.350Z,6.80
2023-02-06T03:11:10.923Z,7.47
2023-02-06T03:13:34.802Z,8.03
2023-02-06T03:15:49.296Z,7.40
2023-02-06T03:18:02.452Z,7.13
2023-02-06T03:20:08.881Z,6.80
2023-02-06T03:22:12.619Z,6.87
2023-02-06T03:24:19.712Z,7.20
2023-02-06T03:26:26.044Z,7.20
2023-02-06T03:28:32.754Z,6.73
2023-02-06T03:30:35.276Z,6.53
2023-02-06T03:32:42.619Z,7.07
2023-02-06T03:35:08.083Z,6.63
2023-02-06T03:37:11.512Z,6.63
2023-02-06T03:39:13.580Z,6.77
2023-02-06T03:41:17.689Z,6.80
2023-02-06T03:43:22.450Z,7.67
2023-02-06T03:45:31.790Z,7.50
2023-02-06T03:47:37.857Z,7.23
2023-02-06T03:49:41.332Z,7.77
2023-02-06T03:51:53.282Z,7.73
2023-02-06T03:53:59.126Z,7.40
2023-02-06T03:56:08.391Z,8.63
2023-02-06T03:58:13.896Z,8.37
2023-02-06T04:00:16.340Z,8.13
2023-02-06T04:02:20.230Z,8.17
2023-02-06T04:04:29.106Z,8.93
2023-02-06T04:06:30.764Z,8.87
2023-02-06T04:08:32.304Z,8.80
2023-02-06T04:10:34.187Z,9.50
2023-02-06T04:12:38.623Z,8.87
2023-02-06T04:14:40.357Z,9.27
2023-02-06T04:16:41.886Z,8.37
2023-02-06T04:18:43.333Z,9.57
2023-02-06T04:20:44.941Z,9.93
2023-02-06T04:22:46.531Z,10.13
2023-02-06T04:24:48.271Z,9.77
2023-02-06T04:26:50.081Z,9.63
2023-02-06T04:28:51.748Z,9.73
2023-02-06T04:30:53.764Z,10.30
2023-02-06T04:32:55.436Z,9.80
2023-02-06T04:34:59.266Z,10.00
2023-02-06T04:37:01.799Z,9.50
2023-02-06T04:39:04.778Z,9.87
2023-02-06T04:41:07.782Z,10.50
2023-02-06T04:43:09.893Z,10.03
2023-02-06T04:45:11.752Z,9.50
2023-02-06T04:47:13.295Z,9.73
2023-02-06T04:49:15.867Z,9.77
2023-02-06T04:51:17.737Z,9.70
2023-02-06T04:53:19.254Z,10.93
2023-02-06T04:55:22.521Z,10.87
2023-02-06T04:57:27.044Z,10.57
2023-02-06T04:59:31.302Z,10.17
2023-02-06T05:01:33.022Z,10.70
2023-02-06T05:03:34.957Z,10.30
2023-02-06T05:05:36.870Z,10.13
2023-02-06T05:07:38.769Z,10.63
2023-02-06T05:09:43.216Z,9.77
2023-02-06T05:11:47.596Z,10.40
2023-02-06T05:13:49.202Z,10.43
2023-02-06T05:15:50.890Z,10.27
2023-02-06T05:17:52.415Z,9.70
2023-02-06T05:19:54.069Z,10.43
2023-02-06T05:21:55.514Z,10.20
2023-02-06T05:23:57.049Z,10.73
2023-02-06T05:25:59.877Z,11.27
2023-02-06T05:28:02.730Z,11.27
2023-02-06T05:30:04.955Z,12.17
2023-02-06T05:32:06.553Z,11.97
2023-02-06T05:34:09.787Z,13.27
2023-02-06T05:36:11.671Z,12.00
2023-02-06T05:38:13.419Z,11.90
2023-02-06T05:40:15.528Z,12.30
2023-02-06T05:42:16.975Z,13.07
2023-02-06T05:44:18.920Z,12.40
2023-02-06T05:46:20.513Z,11.63
2023-02-06T05:48:22.455Z,13.60
2023-02-06T05:50:26.978Z,12.30
2023-02-06T05:52:28.599Z,12.73
2023-02-06T05:54:30.329Z,12.77
2023-02-06T05:56:32.234Z,13.80
2023-02-06T05:58:34.432Z,12.80
2023-02-06T06:00:36.134Z,12.87
2023-02-06T06:02:37.793Z,14.07
2023-02-06T06:04:39.487Z,12.80
2023-02-06T06:06:41.883Z,14.20
2023-02-06T06:08:43.600Z,13.47
2023-02-06T06:10:45.285Z,13.30
2023-02-06T06:12:46.801Z,14.27
2023-02-06T06:14:48.488Z,13.90
2023-02-06T06:16:50.608Z,12.90
2023-02-06T06:18:52.398Z,13.67
2023-02-06T06:20:54.317Z,13.87
2023-02-06T06:22:55.924Z,13.60
2023-02-06T06:24:57.383Z,13.00
2023-02-06T06:26:59.790Z,13.53
2023-02-06T06:29:01.309Z,13.07
2023-02-06T06:31:05.331Z,13.10
2023-02-06T06:33:06.963Z,13.33
2023-02-06T06:35:12.305Z,13.53
2023-02-06T06:37:16.542Z,13.23
2023-02-06T06:39:18.157Z,13.13
2023-02-06T06:41:19.816Z,12.07
2023-02-06T06:43:21.493Z,12.10
2023-02-06T06:45:25.804Z,11.37
2023-02-06T06:47:30.615Z,11.67
2023-02-06T06:49:33.406Z,11.13
2023-02-06T06:51:35.049Z,10.53
2023-02-06T06:53:40.057Z,10.80
2023-02-06T06:55:42.121Z,11.13
2023-02-06T06:57:43.593Z,11.60
2023-02-06T06:59:45.121Z,13.17
2023-02-06T07:01:46.787Z,12.97
2023-02-06T07:03:51.395Z,13.27
2023-02-06T07:05:53.678Z,13.13
2023-02-06T07:07:55.154Z,13.43
2023-02-06T07:09:56.690Z,12.37
2023-02-06T07:12:01.566Z,15.00
2023-02-06T07:14:04.308Z,15.20
2023-02-06T07:16:06.142Z,15.10
2023-02-06T07:18:07.738Z,13.60
2023-02-06T07:20:10.003Z,14.67
2023-02-06T07:22:11.562Z,13.60
2023-02-06T07:24:13.109Z,13.60
2023-02-06T07:26:16.737Z,13.67
2023-02-06T07:28:18.632Z,12.60
2023-02-06T07:30:20.423Z,13.37
2023-02-06T07:32:22.175Z,12.77
2023-02-06T07:34:23.822Z,13.40
2023-02-06T07:36:26.368Z,13.33
2023-02-06T07:38:28.328Z,12.93
2023-02-06T07:40:43.990Z,13.70
2023-02-06T07:42:46.053Z,13.33
2023-02-06T07:44:58.762Z,14.10
2023-02-06T07:47:00.413Z,14.57
2023-02-06T07:49:02.251Z,12.47
2023-02-06T07:51:06.331Z,12.30
2023-02-06T07:53:08.036Z,11.40
2023-02-06T07:55:10.202Z,12.57
2023-02-06T07:57:11.809Z,12.10
2023-02-06T07:59:13.471Z,11.43
2023-02-06T08:01:15.360Z,11.70
2023-02-06T08:03:17.370Z,11.50
2023-02-06T08:05:19.997Z,11.23
2023-02-06T08:07:22.330Z,11.73
2023-02-06T08:09:23.941Z,11.17
2023-02-06T08:11:30.351Z,11.00
2023-02-06T08:13:38.111Z,12.20
2023-02-06T08:15:39.725Z,13.60
2023-02-06T08:17:42.934Z,14.23
2023-02-06T08:19:49.133Z,15.77
2023-02-06T08:21:52.360Z,16.27
2023-02-06T08:23:58.991Z,17.20
2023-02-06T08:26:08.100Z,17.60
2023-02-06T08:28:10.188Z,15.80
2023-02-06T08:30:14.932Z,15.93
2023-02-06T08:32:16.872Z,15.00
2023-02-06T08:34:18.467Z,15.27
2023-02-06T08:36:21.965Z,14.43
2023-02-06T08:38:26.688Z,13.90
2023-02-06T08:40:28.545Z,13.17
2023-02-06T08:42:30.351Z,13.80
2023-02-06T08:44:32.357Z,13.03
2023-02-06T08:46:34.635Z,13.93
2023-02-06T08:48:36.300Z,13.20
2023-02-06T08:50:38.102Z,13.37
2023-02-06T08:52:40.362Z,12.60
2023-02-06T08:54:41.900Z,13.37
2023-02-06T08:56:43.886Z,11.73
2023-02-06T08:58:45.516Z,12.10
2023-02-06T09:00:47.157Z,12.07
2023-02-06T09:02:49.148Z,11.63
2023-02-06T09:04:53.581Z,10.67
2023-02-06T09:06:55.181Z,11.67
2023-02-06T09:08:57.745Z,11.00
2023-02-06T09:11:10.935Z,10.90
2023-02-06T09:13:12.716Z,10.57
2023-02-06T09:15:14.481Z,10.17
2023-02-06T09:17:16.314Z,10.20
2023-02-06T09:19:17.819Z,10.67
2023-02-06T09:21:22.441Z,11.00
2023-02-06T09:23:24.019Z,11.63
2023-02-06T09:25:25.665Z,11.83
2023-02-06T09:27:27.325Z,11.17
2023-02-06T09:29:31.647Z,11.43
2023-02-06T09:31:37.001Z,10.90
2023-02-06T09:33:39.547Z,11.13
2023-02-06T09:35:41.219Z,10.47
2023-02-06T09:37:42.980Z,10.60
2023-02-06T09:39:44.466Z,9.97
2023-02-06T09:41:52.308Z,10.63
2023-02-06T09:44:08.908Z,10.37
2023-02-06T09:46:14.982Z,10.40
2023-02-06T09:48:22.330Z,9.70
2023-02-06T09:50:30.770Z,10.30
2023-02-06T09:52:52.300Z,9.87
2023-02-06T09:55:20.631Z,9.57
2023-02-06T09:57:43.142Z,9.67
2023-02-06T09:59:50.997Z,9.83
2023-02-06T10:02:07.342Z,9.13
2023-02-06T10:04:42.275Z,9.50
2023-02-06T10:06:56.244Z,9.93
2023-02-06T10:09:21.503Z,10.10
2023-02-06T10:11:52.380Z,9.60
2023-02-06T10:13:58.351Z,10.00
2023-02-06T10:16:19.681Z,9.97
2023-02-06T10:18:34.132Z,9.77
2023-02-06T10:20:49.439Z,9.30
2023-02-06T10:23:15.137Z,9.37
2023-02-06T10:25:20.744Z,13.20
2023-02-06T10:27:22.455Z,11.20
2023-02-06T10:29:27.961Z,10.53
2023-02-06T10:31:53.531Z,9.40
2023-02-06T10:34:19.436Z,9.53
2023-02-06T10:36:27.125Z,10.27
2023-02-06T10:38:40.915Z,13.33
2023-02-06T10:40:51.690Z,12.00
2023-02-06T10:43:12.491Z,11.40
2023-02-06T10:45:28.036Z,12.57
2023-02-06T10:47:39.674Z,11.60
2023-02-06T10:49:51.967Z,13.55
2023-02-06T10:52:00.232Z,11.07
2023-02-06T10:54:07.869Z,10.57
2023-02-06T10:56:17.910Z,10.50
2023-02-06T10:58:25.491Z,10.80
2023-02-06T11:00:30.910Z,10.63
2023-02-06T11:02:44.459Z,10.43
2023-02-06T11:05:00.469Z,9.57
2023-02-06T11:07:11.140Z,9.67
2023-02-06T11:09:16.790Z,9.07
2023-02-06T11:11:20.415Z,9.80
2023-02-06T11:13:33.037Z,10.73
2023-02-06T11:15:41.056Z,10.00
2023-02-06T11:17:43.963Z,13.10
2023-02-06T11:19:48.058Z,11.80
2023-02-06T11:22:08.687Z,10.60
2023-02-06T11:24:13.311Z,10.27
2023-02-06T11:26:20.996Z,9.80
2023-02-06T11:28:26.011Z,10.73
2023-02-06T11:30:33.557Z,10.83
2023-02-06T11:32:41.398Z,10.00
2023-02-06T11:35:44.779Z,9.60
2023-02-06T11:37:54.005Z,8.45
2023-02-06T11:40:20.613Z,8.30
2023-02-06T11:42:24.935Z,7.85
2023-02-06T11:44:35.990Z,7.90
2023-02-06T11:46:39.057Z,7.40
2023-02-06T11:48:46.634Z,6.65
2023-02-06T11:50:54.723Z,8.05
2023-02-06T11:53:17.104Z,7.37
2023-02-06T11:55:26.301Z,6.20
2023-02-06T11:57:30.111Z,8.90
2023-02-06T11:59:34.575Z,7.25
2023-02-06T12:01:42.278Z,6.90
2023-02-06T12:03:51.512Z,6.60
2023-02-06T12:05:54.827Z,6.72
2023-02-06T12:08:06.520Z,7.35
2023-02-06T12:10:18.860Z,7.05
2023-02-06T12:12:41.823Z,7.22
2023-02-06T12:14:46.429Z,6.47
2023-02-06T12:16:52.084Z,7.15
2023-02-06T12:18:57.922Z,6.78
2023-02-06T12:21:11.478Z,6.68
2023-02-06T12:23:22.042Z,7.38
2023-02-06T12:25:31.602Z,7.20
2023-02-06T12:27:42.556Z,6.60
2023-02-06T12:30:09.210Z,8.30
2023-02-06T12:32:18.695Z,8.10
2023-02-06T12:34:25.062Z,8.52
2023-02-06T12:37:00.467Z,8.63
2023-02-06T12:39:16.645Z,7.65
2023-02-06T12:41:45.841Z,8.07
2023-02-06T12:43:59.764Z,7.00
2023-02-06T12:46:10.419Z,8.38
2023-02-06T12:48:29.276Z,8.23
2023-02-06T12:50:47.948Z,7.80
2023-02-06T12:53:17.362Z,8.02
2023-02-06T12:55:35.929Z,7.50
2023-02-06T12:57:40.699Z,8.00
2023-02-06T12:59:57.551Z,7.13
2023-02-06T13:02:20.267Z,8.55
2023-02-06T13:04:26.722Z,7.50
2023-02-06T13:06:32.586Z,7.80
2023-02-06T13:08:39.927Z,7.43
2023-02-06T13:10:44.101Z,7.95
2023-02-06T13:12:54.243Z,8.70
2023-02-06T13:15:00.951Z,8.93
2023-02-06T13:17:20.403Z,9.20
2023-02-06T13:19:28.930Z,9.73
2023-02-06T13:21:35.514Z,8.65
2023-02-06T13:24:08.453Z,8.25
2023-02-06T13:26:10.171Z,7.43
2023-02-06T13:28:26.688Z,7.10
2023-02-06T13:30:31.110Z,7.78
2023-02-06T13:32:44.231Z,9.10
2023-02-06T13:34:48.804Z,8.98
2023-02-06T13:36:52.663Z,8.52
2023-02-06T13:38:56.136Z,8.02
2023-02-06T13:41:15.476Z,7.35
2023-02-06T13:43:21.253Z,7.45
2023-02-06T13:45:42.525Z,8.27
2023-02-06T13:48:16.551Z,8.43
2023-02-06T13:50:35.186Z,8.80
2023-02-06T13:52:50.934Z,8.80
2023-02-06T13:55:01.891Z,9.40
2023-02-06T13:57:22.228Z,10.05
2023-02-06T13:59:36.575Z,9.75
2023-02-06T14:01:44.158Z,8.70
2023-02-06T14:03:51.236Z,8.30
2023-02-06T14:06:17.167Z,8.50
2023-02-06T14:08:40.126Z,9.32
2023-02-06T14:11:17.783Z,8.25
2023-02-06T14:13:31.486Z,8.18
2023-02-06T14:15:49.514Z,8.07
2023-02-06T14:18:29.550Z,7.80
2023-02-06T14:20:56.661Z,8.02
2023-02-06T14:23:36.240Z,8.52
2023-02-06T14:25:59.199Z,8.40
2023-02-06T14:28:26.623Z,8.15
2023-02-06T14:30:47.269Z,8.68
2023-02-06T14:33:18.866Z,7.80
2023-02-06T14:36:02.103Z,8.70
2023-02-06T14:38:29.828Z,7.97
2023-02-06T14:40:36.700Z,8.30
2023-02-06T14:42:44.781Z,8.60
2023-02-06T14:44:51.510Z,8.27
2023-02-06T14:46:53.431Z,8.27
2023-02-06T14:48:59.138Z,7.97
2023-02-06T14:51:01.217Z,8.07
2023-02-06T14:53:08.975Z,8.43
2023-02-06T14:55:31.563Z,8.50
2023-02-06T14:57:33.110Z,7.40
2023-02-06T14:59:34.736Z,8.27
2023-02-06T15:01:36.369Z,8.20
2023-02-06T15:03:40.000Z,7.78
2023-02-06T15:05:41.780Z,7.70
2023-02-06T15:07:43.311Z,7.45
2023-02-06T15:09:56.338Z,7.18
2023-02-06T15:12:04.531Z,8.40
2023-02-06T15:14:20.714Z,7.95
2023-02-06T15:16:23.262Z,8.10
2023-02-06T15:18:25.211Z,8.02
2023-02-06T15:20:30.055Z,7.43
2023-02-06T15:22:31.990Z,6.38
2023-02-06T15:24:48.869Z,6.30
2023-02-06T15:27:01.916Z,5.65
2023-02-06T15:29:05.755Z,6.75
2023-02-06T15:31:17.968Z,6.32
2023-02-06T15:33:28.187Z,7.20
2023-02-06T15:35:39.957Z,6.80
2023-02-06T15:37:41.727Z,8.52
2023-02-06T15:39:46.594Z,8.38
2023-02-06T15:41:52.589Z,9.27
2023-02-06T15:44:00.097Z,9.02
2023-02-06T15:46:04.499Z,8.75
2023-02-06T15:48:21.056Z,7.85
2023-02-06T15:50:27.271Z,7.43
2023-02-06T15:52:47.046Z,6.97
2023-02-06T15:54:57.668Z,6.72
2023-02-06T15:57:23.889Z,5.95
2023-02-06T15:59:30.508Z,6.53
2023-02-06T16:01:37.313Z,6.40
2023-02-06T16:03:41.307Z,5.67
2023-02-06T16:05:46.041Z,6.45
2023-02-06T16:07:49.728Z,6.25
2023-02-06T16:09:52.608Z,5.32
2023-02-06T16:11:57.148Z,6.07
2023-02-06T16:13:59.948Z,5.82
2023-02-06T16:16:03.916Z,5.20
2023-02-06T16:18:28.907Z,5.60
2023-02-06T16:20:33.309Z,5.30
2023-02-06T16:22:38.372Z,5.13
2023-02-06T16:24:40.525Z,4.70
2023-02-06T16:26:48.352Z,5.37
2023-02-06T16:29:02.783Z,4.33
2023-02-06T16:31:05.418Z,5.13
2023-02-06T16:33:28.258Z,4.97
2023-02-06T16:35:30.321Z,4.43
2023-02-06T16:37:32.074Z,4.90
2023-02-06T16:39:36.399Z,5.40
2023-02-06T16:41:40.544Z,5.50
2023-02-06T16:43:42.270Z,5.75
2023-02-06T16:45:44.973Z,5.87
2023-02-06T16:47:46.679Z,5.37
2023-02-06T16:49:48.354Z,5.87
2023-02-06T16:51:55.599Z,5.18
2023-02-06T16:53:58.333Z,5.53
2023-02-06T16:55:59.965Z,5.93
2023-02-06T16:58:02.548Z,6.00
2023-02-06T17:00:09.491Z,4.80
2023-02-06T17:02:13.826Z,5.70
2023-02-06T17:04:15.553Z,5.60
2023-02-06T17:06:21.511Z,5.00
2023-02-06T17:08:24.814Z,5.13
2023-02-06T17:10:27.124Z,4.70
2023-02-06T17:12:29.411Z,5.13
2023-02-06T17:14:31.586Z,4.93
2023-02-06T17:16:33.690Z,4.60
2023-02-06T17:18:35.319Z,5.40
2023-02-06T17:20:38.997Z,4.53
2023-02-06T17:22:42.678Z,4.40
2023-02-06T17:24:44.738Z,4.47
2023-02-06T17:26:46.315Z,4.63
2023-02-06T17:28:48.812Z,4.40
2023-02-06T17:30:50.912Z,3.87
2023-02-06T17:32:52.910Z,4.23
2023-02-06T17:34:54.505Z,4.27
2023-02-06T17:36:56.581Z,4.07
2023-02-06T17:38:59.690Z,4.53
2023-02-06T17:41:01.224Z,3.77
2023-02-06T17:43:08.986Z,4.15
2023-02-06T17:45:10.552Z,4.70
2023-02-06T17:47:12.262Z,5.00
2023-02-06T17:49:15.423Z,4.63
2023-02-06T17:51:17.230Z,4.27
2023-02-06T17:53:19.120Z,4.47
2023-02-06T17:55:28.009Z,4.70
2023-02-06T17:57:30.695Z,4.20
2023-02-06T17:59:32.281Z,4.50
2023-02-06T18:01:34.297Z,5.07
2023-02-06T18:03:36.172Z,5.13
2023-02-06T18:05:38.071Z,5.23
2023-02-06T18:07:40.313Z,5.13
2023-02-06T18:09:42.434Z,5.20
2023-02-06T18:11:44.361Z,4.80
2023-02-06T18:13:48.312Z,4.50
2023-02-06T18:15:57.531Z,4.20
2023-02-06T18:17:59.603Z,4.60
2023-02-06T18:20:01.534Z,4.90
2023-02-06T18:22:03.081Z,4.73
2023-02-06T18:24:05.558Z,4.43
2023-02-06T18:26:10.332Z,4.17
2023-02-06T18:28:16.476Z,4.63
2023-02-06T18:30:18.136Z,4.50
2023-02-06T18:32:19.789Z,4.90
2023-02-06T18:34:21.498Z,5.00
2023-02-06T18:36:24.613Z,5.10
2023-02-06T18:38:26.410Z,5.10
2023-02-06T18:40:28.128Z,5.10
2023-02-06T18:42:48.685Z,5.03
2023-02-06T18:44:50.456Z,6.20
2023-02-06T18:46:52.142Z,5.77
2023-02-06T18:48:54.943Z,6.10
2023-02-06T18:50:58.480Z,5.80
2023-02-06T18:53:00.501Z,6.05
2023-02-06T18:55:02.400Z,5.63
2023-02-06T18:57:04.249Z,5.93
2023-02-06T18:59:06.575Z,6.50
2023-02-06T19:01:26.970Z,6.77
2023-02-06T19:03:28.655Z,6.50
2023-02-06T19:05:40.274Z,7.00
2023-02-06T19:07:41.990Z,7.40
2023-02-06T19:09:43.828Z,7.40
2023-02-06T19:11:46.371Z,8.07
2023-02-06T19:13:49.195Z,8.10
2023-02-06T19:15:50.903Z,7.90
2023-02-06T19:17:52.376Z,7.90
2023-02-06T19:19:54.712Z,6.83
2023-02-06T19:21:58.808Z,6.43
2023-02-06T19:24:04.905Z,5.57
2023-02-06T19:26:13.979Z,5.40
2023-02-06T19:28:15.609Z,4.43
2023-02-06T19:30:17.374Z,4.40
2023-02-06T19:32:19.127Z,3.93
2023-02-06T19:34:20.644Z,3.77
2023-02-06T19:36:23.889Z,3.73
2023-02-06T19:38:26.912Z,4.20
2023-02-06T19:40:28.486Z,4.23
2023-02-06T19:42:38.834Z,4.60
2023-02-06T19:44:40.568Z,5.10
2023-02-06T19:46:42.090Z,4.77
2023-02-06T19:48:45.585Z,5.53
2023-02-06T19:50:47.255Z,5.97
2023-02-06T19:52:48.781Z,6.37
2023-02-06T19:54:50.458Z,6.97
2023-02-06T19:56:52.177Z,6.07
2023-02-06T19:58:59.594Z,5.50
2023-02-06T20:01:13.803Z,4.97
2023-02-06T20:03:15.422Z,3.80
2023-02-06T20:05:20.216Z,3.30
2023-02-06T20:07:21.974Z,3.40
2023-02-06T20:09:27.244Z,3.27
2023-02-06T20:11:29.429Z,2.93
2023-02-06T20:13:31.509Z,3.17
2023-02-06T20:15:38.800Z,3.40
2023-02-06T20:17:41.884Z,3.47
2023-02-06T20:19:43.456Z,3.30
2023-02-06T20:21:50.024Z,3.30
2023-02-06T20:23:52.113Z,3.53
2023-02-06T20:25:59.078Z,3.37
2023-02-06T20:28:01.436Z,3.30
2023-02-06T20:30:03.515Z,2.97
2023-02-06T20:32:06.900Z,3.10
2023-02-06T20:34:11.445Z,3.10
2023-02-06T20:36:16.441Z,2.93
2023-02-06T20:38:17.996Z,2.93
2023-02-06T20:40:20.195Z,2.70
2023-02-06T20:42:24.738Z,2.67
2023-02-06T20:44:26.500Z,2.87
2023-02-06T20:46:30.860Z,3.00
2023-02-06T20:48:40.300Z,2.47
2023-02-06T20:50:41.978Z,2.63
2023-02-06T20:52:43.665Z,2.90
2023-02-06T20:54:45.478Z,3.00
2023-02-06T20:56:47.122Z,3.03
2023-02-06T20:58:50.442Z,3.17
2023-02-06T21:00:52.749Z,3.17
2023-02-06T21:02:56.472Z,2.93
2023-02-06T21:04:58.128Z,3.13
2023-02-06T21:07:00.507Z,2.70
2023-02-06T21:09:03.156Z,2.70
2023-02-06T21:11:08.235Z,2.50
2023-02-06T21:13:09.667Z,2.43
2023-02-06T21:15:11.786Z,3.57
2023-02-06T21:17:13.375Z,3.00
2023-02-06T21:19:17.135Z,4.20
2023-02-06T21:21:18.974Z,4.70
2023-02-06T21:23:20.468Z,4.93
2023-02-06T21:25:22.364Z,4.80
2023-02-06T21:27:24.154Z,4.50
2023-02-06T21:29:27.900Z,5.30
2023-02-06T21:31:37.531Z,4.60
2023-02-06T21:33:44.968Z,4.73
2023-02-06T21:35:53.212Z,4.87
2023-02-06T21:37:54.781Z,4.97
2023-02-06T21:39:56.349Z,5.20
2023-02-06T21:41:57.947Z,5.07
2023-02-06T21:43:59.576Z,5.27
2023-02-06T21:46:01.618Z,5.80
2023-02-06T21:48:03.576Z,5.00
2023-02-06T21:50:05.526Z,5.70
2023-02-06T21:52:07.295Z,5.40
2023-02-06T21:54:12.493Z,5.40
2023-02-06T21:56:16.494Z,5.63
2023-02-06T21:58:18.193Z,6.30
2023-02-06T22:00:19.858Z,7.50
2023-02-06T22:02:21.523Z,7.83
2023-02-06T22:04:23.066Z,8.50
2023-02-06T22:06:25.384Z,6.70
2023-02-06T22:08:28.839Z,7.13
2023-02-06T22:10:31.037Z,6.57
2023-02-06T22:12:33.245Z,6.30
2023-02-06T22:14:35.563Z,6.33
2023-02-06T22:16:38.134Z,6.93
2023-02-06T22:18:40.058Z,6.70
2023-02-06T22:20:41.922Z,6.80
2023-02-06T22:22:43.521Z,6.63
2023-02-06T22:24:51.201Z,6.83
2023-02-06T22:26:52.794Z,7.60
2023-02-06T22:28:54.368Z,7.67
2023-02-06T22:30:56.078Z,6.47
2023-02-06T22:32:57.739Z,7.43
2023-02-06T22:35:00.125Z,6.97
2023-02-06T22:37:01.814Z,7.80
2023-02-06T22:39:08.263Z,8.30
2023-02-06T22:41:14.786Z,8.83
2023-02-06T22:43:16.337Z,8.97
2023-02-06T22:45:17.878Z,9.57
2023-02-06T22:47:19.460Z,9.33
2023-02-06T22:49:21.727Z,9.43
2023-02-06T22:51:24.320Z,9.43
2023-02-06T22:53:31.839Z,9.23
2023-02-06T22:55:57.825Z,8.60
2023-02-06T22:57:59.311Z,8.30
2023-02-06T23:00:00.997Z,8.03
2023-02-06T23:02:02.533Z,7.40
2023-02-06T23:04:06.485Z,8.20
2023-02-06T23:06:14.362Z,8.83
2023-02-06T23:08:19.174Z,8.20
2023-02-06T23:10:20.754Z,9.67
2023-02-06T23:12:25.089Z,13.37
2023-02-06T23:14:29.218Z,14.77
2023-02-06T23:16:32.709Z,15.90
2023-02-06T23:18:34.824Z,14.93
2023-02-06T23:20:39.730Z,13.37
2023-02-06T23:22:41.354Z,12.37
2023-02-06T23:24:45.283Z,10.50
2023-02-06T23:26:50.519Z,9.83
2023-02-06T23:28:52.406Z,8.93
2023-02-06T23:30:54.828Z,7.93
2023-02-06T23:32:58.888Z,7.53
2023-02-06T23:35:00.437Z,7.53
2023-02-06T23:37:06.171Z,7.43
2023-02-06T23:39:07.708Z,7.43
2023-02-06T23:41:12.437Z,7.83
2023-02-06T23:43:14.047Z,7.90
2023-02-06T23:45:18.380Z,7.47
2023-02-06T23:47:19.958Z,7.20
2023-02-06T23:49:21.971Z,7.60
2023-02-06T23:51:24.253Z,7.13
2023-02-06T23:53:26.545Z,6.67
2023-02-06T23:55:30.612Z,7.57
2023-02-06T23:57:35.118Z,8.10
2023-02-06T23:59:36.766Z,8.10
